createdAt,value
2023-03-30T00:01:35.656Z,101313.03
2023-03-30T00:04:07.158Z,101314.22
2023-03-30T00:06:39.728Z,101304.16
2023-03-30T00:09:10.346Z,101306.59
2023-03-30T00:11:43.621Z,101306.13
2023-03-30T00:14:14.125Z,101308.44
2023-03-30T00:16:45.189Z,101300.38
2023-03-30T00:19:17.299Z,101298.72
2023-03-30T00:21:47.837Z,101297.91
2023-03-30T00:24:18.296Z,101291.47
2023-03-30T00:26:50.294Z,101299.88
2023-03-30T00:29:20.986Z,101295.91
2023-03-30T00:31:51.795Z,101289.81
2023-03-30T00:34:22.601Z,101287.50
2023-03-30T00:36:53.848Z,101287.50
2023-03-30T00:39:27.079Z,101290.66
2023-03-30T00:41:59.158Z,101286.69
2023-03-30T00:45:12.105Z,101296.28
2023-03-30T00:47:47.713Z,101285.06
2023-03-30T00:50:22.382Z,101289.50
2023-03-30T00:52:57.155Z,101290.31
2023-03-30T00:55:32.467Z,101291.47
2023-03-30T00:58:05.405Z,101286.69
2023-03-30T01:00:38.899Z,101285.53
2023-03-30T01:03:17.100Z,101288.34
2023-03-30T01:05:49.283Z,101288.34
2023-03-30T01:08:20.666Z,101277.94
2023-03-30T01:10:51.316Z,101282.38
2023-03-30T01:13:24.347Z,101286.00
2023-03-30T01:16:11.734Z,101276.75
2023-03-30T01:18:57.020Z,101275.00
2023-03-30T01:22:13.333Z,101281.28
2023-03-30T01:25:38.852Z,101277.03
2023-03-30T01:28:42.281Z,101271.31
2023-03-30T01:31:49.656Z,101276.06
2023-03-30T01:34:52.170Z,101271.50
2023-03-30T01:38:11.028Z,101271.84
2023-03-30T01:40:51.733Z,101268.56
2023-03-30T01:43:32.167Z,101271.34
2023-03-30T01:46:10.294Z,101265.75
2023-03-30T01:48:50.394Z,101277.81
2023-03-30T01:51:29.466Z,101274.16
2023-03-30T01:54:10.074Z,101270.38
2023-03-30T01:56:48.690Z,101278.34
2023-03-30T01:59:29.336Z,101265.13
2023-03-30T02:02:04.669Z,101278.34
2023-03-30T02:04:42.333Z,101277.19
2023-03-30T02:07:18.823Z,101267.13
2023-03-30T02:09:53.414Z,101269.94
2023-03-30T02:12:29.792Z,101265.47
2023-03-30T02:15:05.306Z,101262.69
2023-03-30T02:17:38.505Z,101265.47
2023-03-30T02:20:12.902Z,101264.63
2023-03-30T02:22:43.441Z,101265.78
2023-03-30T02:25:14.797Z,101267.78
2023-03-30T02:27:47.339Z,101278.66
2023-03-30T02:30:18.841Z,101269.09
2023-03-30T02:32:54.577Z,101273.19
2023-03-30T02:35:58.254Z,101283.59
2023-03-30T02:39:05.694Z,101274.69
2023-03-30T02:42:38.218Z,101275.84
2023-03-30T02:45:29.675Z,101281.00
2023-03-30T02:48:19.142Z,101272.09
2023-03-30T02:50:57.801Z,101269.31
2023-03-30T02:53:37.492Z,101279.38
2023-03-30T02:56:19.783Z,101276.88
2023-03-30T02:58:58.906Z,101274.06
2023-03-30T03:01:39.465Z,101276.56
2023-03-30T03:04:15.883Z,101275.03
2023-03-30T03:06:46.922Z,101281.94
2023-03-30T03:09:17.527Z,101276.00
2023-03-30T03:11:48.072Z,101281.28
2023-03-30T03:14:17.932Z,101278.47
2023-03-30T03:16:52.448Z,101273.66
2023-03-30T03:19:23.451Z,101279.78
2023-03-30T03:21:53.717Z,101288.19
2023-03-30T03:24:24.628Z,101281.41
2023-03-30T03:26:55.113Z,101278.13
2023-03-30T03:29:27.804Z,101286.88
2023-03-30T03:31:59.897Z,101284.56
2023-03-30T03:34:31.828Z,101275.81
2023-03-30T03:37:02.931Z,101280.25
2023-03-30T03:39:34.112Z,101281.91
2023-03-30T03:42:04.647Z,101285.19
2023-03-30T03:44:38.044Z,101278.75
2023-03-30T03:47:15.999Z,101286.34
2023-03-30T03:49:47.052Z,101285.19
2023-03-30T03:52:17.647Z,101283.53
2023-03-30T03:54:48.087Z,101284.72
2023-03-30T03:57:18.681Z,101289.16
2023-03-30T03:59:49.200Z,101297.09
2023-03-30T04:02:23.923Z,101297.88
2023-03-30T04:04:54.837Z,101289.03
2023-03-30T04:07:25.833Z,101303.84
2023-03-30T04:09:56.069Z,101295.63
2023-03-30T04:12:26.776Z,101293.53
2023-03-30T04:14:57.244Z,101292.69
2023-03-30T04:17:29.831Z,101299.13
2023-03-30T04:20:06.924Z,101295.97
2023-03-30T04:22:42.289Z,101295.97
2023-03-30T04:25:15.368Z,101299.63
2023-03-30T04:27:45.864Z,101294.47
2023-03-30T04:30:16.897Z,101299.41
2023-03-30T04:32:55.096Z,101302.69
2023-03-30T04:35:25.715Z,101299.22
2023-03-30T04:37:55.799Z,101301.00
2023-03-30T04:40:26.772Z,101313.03
2023-03-30T04:43:02.724Z,101308.56
2023-03-30T04:45:34.161Z,101306.59
2023-03-30T04:48:06.677Z,101310.22
2023-03-30T04:50:37.107Z,101315.03
2023-03-30T04:53:07.865Z,101313.88
2023-03-30T04:55:37.785Z,101317.13
2023-03-30T04:58:08.374Z,101312.00
2023-03-30T05:00:39.071Z,101320.91
2023-03-30T05:03:11.577Z,101322.88
2023-03-30T05:05:42.036Z,101320.91
2023-03-30T05:08:12.537Z,101316.94
2023-03-30T05:10:43.067Z,101312.97
2023-03-30T05:13:12.908Z,101309.47
2023-03-30T05:15:43.245Z,101315.56
2023-03-30T05:18:15.937Z,101312.09
2023-03-30T05:20:46.044Z,101320.28
2023-03-30T05:23:16.534Z,101317.28
2023-03-30T05:25:49.227Z,101327.00
2023-03-30T05:28:19.727Z,101326.63
2023-03-30T05:30:54.544Z,101333.91
2023-03-30T05:33:27.511Z,101332.41
2023-03-30T05:35:58.017Z,101324.97
2023-03-30T05:38:28.575Z,101324.78
2023-03-30T05:40:59.096Z,101338.25
2023-03-30T05:43:30.168Z,101323.63
2023-03-30T05:46:00.583Z,101331.19
2023-03-30T05:48:33.512Z,101333.09
2023-03-30T05:51:04.292Z,101334.97
2023-03-30T05:53:34.985Z,101332.91
2023-03-30T05:56:05.759Z,101327.53
2023-03-30T05:58:36.292Z,101326.63
2023-03-30T06:01:07.459Z,101322.47
2023-03-30T06:03:40.391Z,101331.59
2023-03-30T06:06:12.628Z,101330.69
2023-03-30T06:08:43.737Z,101324.97
2023-03-30T06:11:14.470Z,101334.91
2023-03-30T06:13:44.759Z,101335.19
2023-03-30T06:16:15.573Z,101339.75
2023-03-30T06:18:47.544Z,101339.38
2023-03-30T06:21:18.203Z,101338.56
2023-03-30T06:23:49.534Z,101345.00
2023-03-30T06:26:20.210Z,101341.38
2023-03-30T06:28:50.587Z,101342.56
2023-03-30T06:31:21.214Z,101336.47
2023-03-30T06:33:53.256Z,101346.88
2023-03-30T06:36:44.422Z,101346.75
2023-03-30T06:39:14.631Z,101349.81
2023-03-30T06:41:45.081Z,101346.53
2023-03-30T06:44:15.920Z,101350.84
2023-03-30T06:46:46.659Z,101352.72
2023-03-30T06:49:18.249Z,101349.78
2023-03-30T06:51:49.063Z,101356.09
2023-03-30T06:54:20.823Z,101348.81
2023-03-30T06:56:53.082Z,101349.66
2023-03-30T06:59:24.085Z,101352.47
2023-03-30T07:01:54.318Z,101360.91
2023-03-30T07:04:26.918Z,101351.63
2023-03-30T07:06:58.054Z,101357.63
2023-03-30T07:09:28.987Z,101355.97
2023-03-30T07:11:59.547Z,101355.28
2023-03-30T07:14:30.062Z,101347.34
2023-03-30T07:17:00.316Z,101371.91
2023-03-30T07:19:32.489Z,101360.22
2023-03-30T07:22:03.046Z,101358.22
2023-03-30T07:24:34.146Z,101356.69
2023-03-30T07:27:04.548Z,101356.81
2023-03-30T07:29:34.568Z,101357.41
2023-03-30T07:32:04.850Z,101346.88
2023-03-30T07:34:37.155Z,101361.19
2023-03-30T07:37:08.488Z,101356.97
2023-03-30T07:39:39.105Z,101360.03
2023-03-30T07:42:10.392Z,101367.41
2023-03-30T07:44:40.453Z,101370.00
2023-03-30T07:47:11.017Z,101371.78
2023-03-30T07:49:43.016Z,101362.16
2023-03-30T07:52:13.650Z,101375.84
2023-03-30T07:54:44.608Z,101361.00
2023-03-30T07:57:15.220Z,101358.66
2023-03-30T07:59:47.086Z,101364.72
2023-03-30T08:02:18.544Z,101364.03
2023-03-30T08:04:50.906Z,101362.84
2023-03-30T08:07:20.767Z,101365.31
2023-03-30T08:09:51.933Z,101378.56
2023-03-30T08:12:22.384Z,101369.28
2023-03-30T08:14:52.785Z,101370.47
2023-03-30T08:17:33.006Z,101372.47
2023-03-30T08:20:11.113Z,101365.19
2023-03-30T08:22:41.962Z,101367.19
2023-03-30T08:25:12.428Z,101372.00
2023-03-30T08:27:42.992Z,101372.00
2023-03-30T08:30:16.862Z,101376.81
2023-03-30T08:32:47.805Z,101379.03
2023-03-30T08:35:22.192Z,101379.72
2023-03-30T08:37:54.312Z,101376.00
2023-03-30T08:40:25.659Z,101373.78
2023-03-30T08:43:15.236Z,101375.13
2023-03-30T08:45:46.878Z,101391.06
2023-03-30T08:48:23.919Z,101391.75
2023-03-30T08:51:03.795Z,101381.56
2023-03-30T08:53:37.240Z,101389.03
2023-03-30T08:56:23.117Z,101377.34
2023-03-30T08:59:07.825Z,101378.41
2023-03-30T09:01:49.795Z,101375.81
2023-03-30T09:04:35.789Z,101368.41
2023-03-30T09:07:19.766Z,101357.75
2023-03-30T09:09:53.234Z,101355.50
2023-03-30T09:12:35.742Z,101350.91
2023-03-30T09:15:16.261Z,101348.34
2023-03-30T09:17:53.044Z,101340.25
2023-03-30T09:20:28.156Z,101332.53
2023-03-30T09:23:05.206Z,101327.59
2023-03-30T09:25:45.465Z,101329.44
2023-03-30T09:28:23.193Z,101334.59
2023-03-30T09:31:01.928Z,101335.41
2023-03-30T09:33:41.272Z,101346.31
2023-03-30T09:36:20.415Z,101332.75
2023-03-30T09:38:53.299Z,101342.00
2023-03-30T09:42:05.164Z,101334.38
2023-03-30T09:44:40.865Z,101336.88
2023-03-30T09:47:27.067Z,101338.97
2023-03-30T09:50:02.989Z,101338.28
2023-03-30T09:52:37.667Z,101337.91
2023-03-30T09:55:31.656Z,101327.03
2023-03-30T09:58:21.655Z,101327.72
2023-03-30T10:01:09.380Z,101332.84
2023-03-30T10:03:40.086Z,101340.47
2023-03-30T10:06:14.236Z,101344.47
2023-03-30T10:08:53.701Z,101348.09
2023-03-30T10:11:39.572Z,101354.53
2023-03-30T10:14:34.295Z,101349.59
2023-03-30T10:17:10.334Z,101351.59
2023-03-30T10:19:48.647Z,101356.06
2023-03-30T10:22:24.622Z,101346.78
2023-03-30T10:24:57.763Z,101338.03
2023-03-30T10:27:36.596Z,101345.63
2023-03-30T10:30:14.705Z,101331.94
2023-03-30T10:32:48.286Z,101334.75
2023-03-30T10:35:27.059Z,101327.44
2023-03-30T10:38:00.042Z,101331.41
2023-03-30T10:40:39.052Z,101325.81
2023-03-30T10:43:19.954Z,101315.72
2023-03-30T10:45:54.580Z,101314.09
2023-03-30T10:48:44.909Z,101306.50
2023-03-30T10:51:32.764Z,101306.81
2023-03-30T10:54:19.917Z,101306.38
2023-03-30T10:56:54.674Z,101305.91
2023-03-30T11:00:00.215Z,101311.38
2023-03-30T11:02:59.308Z,101305.28
2023-03-30T11:05:35.995Z,101307.63
2023-03-30T11:08:10.127Z,101307.97
2023-03-30T11:10:45.481Z,101305.50
2023-03-30T11:13:24.366Z,101309.03
2023-03-30T11:15:59.200Z,101312.03
2023-03-30T11:18:37.932Z,101310.75
2023-03-30T11:21:14.642Z,101315.88
2023-03-30T11:23:53.971Z,101314.59
2023-03-30T11:26:36.622Z,101314.09
2023-03-30T11:29:27.583Z,101312.81
2023-03-30T11:32:17.885Z,101301.47
2023-03-30T11:35:02.636Z,101302.16
2023-03-30T11:37:41.445Z,101292.91
2023-03-30T11:40:23.701Z,101292.06
2023-03-30T11:42:55.893Z,101288.09
2023-03-30T11:46:04.084Z,101294.88
2023-03-30T11:49:34.218Z,101286.81
2023-03-30T11:52:27.978Z,101290.44
2023-03-30T11:55:29.802Z,101290.44
2023-03-30T11:58:17.131Z,101282.84
2023-03-30T12:01:04.433Z,101292.44
2023-03-30T12:03:45.784Z,101284.81
2023-03-30T12:06:35.368Z,101284.50
2023-03-30T12:09:27.104Z,101280.50
2023-03-30T12:12:08.275Z,101284.13
2023-03-30T12:14:57.173Z,101279.81
2023-03-30T12:17:42.435Z,101284.63
2023-03-30T12:20:29.979Z,101284.25
2023-03-30T12:23:12.078Z,101284.25
2023-03-30T12:26:11.020Z,101286.25
2023-03-30T12:29:15.143Z,101285.78
2023-03-30T12:32:21.629Z,101290.09
2023-03-30T12:34:52.386Z,101278.03
2023-03-30T12:37:27.057Z,101278.03
2023-03-30T12:40:11.666Z,101282.50
2023-03-30T12:42:56.159Z,101273.25
2023-03-30T12:45:33.882Z,101281.19
2023-03-30T12:48:33.660Z,101278.72
2023-03-30T12:51:24.877Z,101279.06
2023-03-30T12:54:38.187Z,101281.41
2023-03-30T12:57:23.790Z,101291.00
2023-03-30T13:00:24.044Z,101287.03
2023-03-30T13:03:30.931Z,101284.56
2023-03-30T13:06:05.435Z,101277.31
2023-03-30T13:08:52.934Z,101274.13
2023-03-30T13:11:26.633Z,101286.88
2023-03-30T13:14:03.410Z,101278.47
2023-03-30T13:17:17.974Z,101283.28
2023-03-30T13:20:25.956Z,101286.88
2023-03-30T13:23:33.458Z,101290.06
2023-03-30T13:26:33.849Z,101294.16
2023-03-30T13:29:14.666Z,101279.31
2023-03-30T13:32:18.931Z,101280.91
2023-03-30T13:35:41.337Z,101284.09
2023-03-30T13:38:40.566Z,101284.91
2023-03-30T13:41:44.797Z,101273.69
2023-03-30T13:44:42.038Z,101287.72
2023-03-30T13:47:37.263Z,101281.28
2023-03-30T13:50:22.540Z,101284.09
2023-03-30T13:52:56.779Z,101283.28
2023-03-30T13:55:33.712Z,101287.72
2023-03-30T13:58:08.344Z,101298.59
2023-03-30T14:00:49.389Z,101295.78
2023-03-30T14:03:40.729Z,101298.59
2023-03-30T14:06:19.581Z,101293.00
2023-03-30T14:08:53.050Z,101296.97
2023-03-30T14:11:28.443Z,101290.19
2023-03-30T14:13:59.847Z,101297.75
2023-03-30T14:16:39.989Z,101287.38
2023-03-30T14:19:25.357Z,101298.13
2023-03-30T14:22:02.000Z,101297.63
2023-03-30T14:24:35.144Z,101298.78
2023-03-30T14:27:09.982Z,101298.00
2023-03-30T14:29:48.836Z,101312.03
2023-03-30T14:32:23.842Z,101305.94
2023-03-30T14:34:58.470Z,101302.81
2023-03-30T14:37:33.404Z,101308.75
2023-03-30T14:40:06.960Z,101303.47
2023-03-30T14:42:39.913Z,101314.22
2023-03-30T14:45:12.911Z,101315.38
2023-03-30T14:47:44.246Z,101322.00
2023-03-30T14:50:21.971Z,101323.50
2023-03-30T14:52:54.732Z,101327.47
2023-03-30T14:55:30.223Z,101327.84
2023-03-30T14:58:02.469Z,101325.69
2023-03-30T15:00:36.208Z,101332.47
2023-03-30T15:03:16.805Z,101325.22
2023-03-30T15:05:55.024Z,101337.59
2023-03-30T15:08:29.425Z,101325.09
2023-03-30T15:11:03.448Z,101329.06
2023-03-30T15:13:42.704Z,101329.53
2023-03-30T15:16:21.501Z,101328.69
2023-03-30T15:18:55.114Z,101337.47
2023-03-30T15:21:27.671Z,101326.91
2023-03-30T15:23:59.615Z,101337.69
2023-03-30T15:26:31.420Z,101324.81
2023-03-30T15:29:05.045Z,101332.75
2023-03-30T15:31:35.582Z,101326.66
2023-03-30T15:34:08.971Z,101330.13
2023-03-30T15:36:42.789Z,101336.91
2023-03-30T15:39:24.764Z,101333.63
2023-03-30T15:42:05.856Z,101344.38
2023-03-30T15:44:38.645Z,101337.78
2023-03-30T15:47:17.852Z,101354.47
2023-03-30T15:49:53.252Z,101345.44
2023-03-30T15:52:34.518Z,101357.81
2023-03-30T15:55:16.684Z,101360.13
2023-03-30T15:57:53.466Z,101360.81
2023-03-30T16:00:29.272Z,101354.38
2023-03-30T16:03:03.024Z,101355.88
2023-03-30T16:05:36.449Z,101359.84
2023-03-30T16:08:08.811Z,101364.97
2023-03-30T16:10:41.141Z,101355.59
2023-03-30T16:13:15.144Z,101363.19
2023-03-30T16:15:45.680Z,101371.94
2023-03-30T16:18:17.098Z,101363.03
2023-03-30T16:20:47.699Z,101371.78
2023-03-30T16:23:20.489Z,101374.09
2023-03-30T16:25:51.780Z,101372.78
2023-03-30T16:28:25.197Z,101373.44
2023-03-30T16:31:03.119Z,101374.59
2023-03-30T16:33:34.267Z,101378.09
2023-03-30T16:36:09.124Z,101380.06
2023-03-30T16:38:43.910Z,101381.22
2023-03-30T16:41:19.271Z,101390.78
2023-03-30T16:43:50.381Z,101393.13
2023-03-30T16:46:23.045Z,101395.06
2023-03-30T16:48:53.135Z,101399.03
2023-03-30T16:51:25.614Z,101401.03
2023-03-30T16:53:58.201Z,101411.41
2023-03-30T16:56:29.410Z,101409.28
2023-03-30T16:59:00.418Z,101402.03
2023-03-30T17:01:32.678Z,101403.19
2023-03-30T17:04:03.777Z,101411.09
2023-03-30T17:06:33.679Z,101402.69
2023-03-30T17:09:09.608Z,101404.69
2023-03-30T17:11:40.446Z,101415.41
2023-03-30T17:14:10.916Z,101413.75
2023-03-30T17:16:47.514Z,101422.47
2023-03-30T17:19:19.944Z,101425.13
2023-03-30T17:21:50.650Z,101417.88
2023-03-30T17:24:23.165Z,101419.88
2023-03-30T17:26:53.736Z,101421.38
2023-03-30T17:29:24.084Z,101436.53
2023-03-30T17:31:54.747Z,101435.69
2023-03-30T17:34:25.521Z,101430.09
2023-03-30T17:36:56.664Z,101440.50
2023-03-30T17:39:29.858Z,101432.09
2023-03-30T17:42:00.920Z,101430.94
2023-03-30T17:44:33.697Z,101428.44
2023-03-30T17:47:04.411Z,101437.19
2023-03-30T17:49:37.010Z,101439.50
2023-03-30T17:52:07.720Z,101437.03
2023-03-30T17:54:41.809Z,101445.44
2023-03-30T17:57:13.867Z,101441.34
2023-03-30T17:59:44.533Z,101446.09
2023-03-30T18:02:15.108Z,101440.50
2023-03-30T18:04:45.962Z,101452.03
2023-03-30T18:07:17.614Z,101448.44
2023-03-30T18:09:50.373Z,101447.25
2023-03-30T18:12:20.200Z,101449.25
2023-03-30T18:14:50.690Z,101443.97
2023-03-30T18:17:21.505Z,101451.22
2023-03-30T18:19:52.694Z,101450.41
2023-03-30T18:22:23.118Z,101447.59
2023-03-30T18:24:56.036Z,101466.06
2023-03-30T18:27:27.283Z,101463.59
2023-03-30T18:29:58.526Z,101451.88
2023-03-30T18:32:40.498Z,101465.41
2023-03-30T18:35:17.286Z,101467.69
2023-03-30T18:37:48.625Z,101480.06
2023-03-30T18:40:25.915Z,101471.66
2023-03-30T18:42:56.852Z,101472.81
2023-03-30T18:45:41.249Z,101467.19
2023-03-30T18:48:17.222Z,101463.59
2023-03-30T18:50:49.741Z,101466.38
2023-03-30T18:53:22.630Z,101461.59
2023-03-30T18:55:59.001Z,101470.00
2023-03-30T18:58:30.972Z,101470.34
2023-03-30T19:01:02.053Z,101475.13
2023-03-30T19:03:33.687Z,101478.25
2023-03-30T19:06:04.314Z,101478.59
2023-03-30T19:08:35.374Z,101483.34
2023-03-30T19:11:08.174Z,101461.28
2023-03-30T19:13:38.425Z,101468.03
2023-03-30T19:16:09.515Z,101472.00
2023-03-30T19:18:40.431Z,101474.78
2023-03-30T19:21:16.663Z,101468.38
2023-03-30T19:23:47.294Z,101463.59
2023-03-30T19:26:19.902Z,101462.44
2023-03-30T19:28:50.340Z,101484.84
2023-03-30T19:31:20.249Z,101466.38
2023-03-30T19:33:50.786Z,101478.44
2023-03-30T19:36:25.218Z,101469.53
2023-03-30T19:38:55.415Z,101465.06
2023-03-30T19:41:38.716Z,101482.38
2023-03-30T19:44:13.304Z,101477.13
2023-03-30T19:46:48.343Z,101466.72
2023-03-30T19:49:19.870Z,101472.34
2023-03-30T19:51:54.503Z,101472.34
2023-03-30T19:54:25.934Z,101467.88
2023-03-30T19:56:58.790Z,101465.91
2023-03-30T19:59:29.715Z,101474.31
2023-03-30T20:02:00.427Z,101460.63
2023-03-30T20:04:30.585Z,101479.91
2023-03-30T20:07:01.958Z,101473.81
2023-03-30T20:09:32.060Z,101460.63
2023-03-30T20:12:05.023Z,101469.03
2023-03-30T20:14:36.089Z,101467.06
2023-03-30T20:17:10.997Z,101460.31
2023-03-30T20:19:43.056Z,101463.13
2023-03-30T20:22:13.684Z,101474.31
2023-03-30T20:24:45.199Z,101460.31
2023-03-30T20:27:18.444Z,101471.53
2023-03-30T20:29:48.612Z,101463.44
2023-03-30T20:32:21.983Z,101461.78
2023-03-30T20:34:52.109Z,101471.31
2023-03-30T20:37:22.436Z,101467.72
2023-03-30T20:39:52.587Z,101472.47
2023-03-30T20:42:27.194Z,101471.66
2023-03-30T20:44:58.284Z,101456.84
2023-03-30T20:47:31.057Z,101455.50
2023-03-30T20:50:02.254Z,101463.41
2023-03-30T20:52:32.474Z,101459.44
2023-03-30T20:55:02.738Z,101453.84
2023-03-30T20:57:40.198Z,101461.59
2023-03-30T21:00:13.163Z,101454.34
2023-03-30T21:02:43.670Z,101461.94
2023-03-30T21:05:14.031Z,101461.94
2023-03-30T21:07:48.265Z,101453.03
2023-03-30T21:10:21.606Z,101460.13
2023-03-30T21:12:56.619Z,101459.28
2023-03-30T21:15:27.581Z,101456.31
2023-03-30T21:17:57.751Z,101454.66
2023-03-30T21:20:28.178Z,101446.25
2023-03-30T21:22:58.878Z,101437.88
2023-03-30T21:25:30.532Z,101442.31
2023-03-30T21:28:03.278Z,101447.59
2023-03-30T21:30:33.870Z,101433.91
2023-03-30T21:33:03.980Z,101436.41
2023-03-30T21:35:34.727Z,101438.38
2023-03-30T21:38:06.375Z,101438.72
2023-03-30T21:40:36.986Z,101435.56
2023-03-30T21:43:09.793Z,101431.63
2023-03-30T21:45:41.066Z,101444.47
2023-03-30T21:48:15.075Z,101436.88
2023-03-30T21:50:45.686Z,101434.06
2023-03-30T21:53:16.962Z,101426.50
2023-03-30T21:55:48.944Z,101428.47
2023-03-30T21:58:21.574Z,101440.53
2023-03-30T22:01:04.502Z,101434.91
2023-03-30T22:03:42.160Z,101434.06
2023-03-30T22:06:16.453Z,101439.69
2023-03-30T22:08:48.223Z,101436.06
2023-03-30T22:11:22.598Z,101444.47
2023-03-30T22:13:55.801Z,101438.03
2023-03-30T22:16:28.683Z,101438.38
2023-03-30T22:18:59.746Z,101440.66
2023-03-30T22:21:34.767Z,101422.22
2023-03-30T22:24:08.033Z,101434.09
2023-03-30T22:26:38.458Z,101433.25
2023-03-30T22:29:10.878Z,101434.91
2023-03-30T22:31:43.065Z,101426.00
2023-03-30T22:34:13.994Z,101436.41
2023-03-30T22:36:44.878Z,101432.75
2023-03-30T22:39:17.176Z,101420.25
2023-03-30T22:41:47.567Z,101422.25
2023-03-30T22:44:20.361Z,101431.78
2023-03-30T22:46:50.866Z,101434.09
2023-03-30T22:49:21.558Z,101428.50
2023-03-30T22:51:54.504Z,101412.84
2023-03-30T22:54:26.200Z,101412.84
2023-03-30T22:56:57.120Z,101412.03
2023-03-30T22:59:30.329Z,101412.03
2023-03-30T23:02:00.572Z,101401.66
2023-03-30T23:04:32.006Z,101398.34
2023-03-30T23:07:04.503Z,101402.78
2023-03-30T23:09:35.305Z,101402.78
2023-03-30T23:12:06.854Z,101390.78
2023-03-30T23:14:40.247Z,101389.94
2023-03-30T23:17:10.564Z,101388.31
2023-03-30T23:19:48.910Z,101383.88
2023-03-30T23:22:19.608Z,101373.84
2023-03-30T23:24:49.702Z,101385.03
2023-03-30T23:27:20.461Z,101371.84
2023-03-30T23:29:53.473Z,101383.03
2023-03-30T23:32:23.573Z,101377.44
2023-03-30T23:34:53.360Z,101377.09
2023-03-30T23:37:23.851Z,101368.41
2023-03-30T23:39:54.301Z,101366.75
2023-03-30T23:42:24.676Z,101375.16
2023-03-30T23:44:57.149Z,101367.91
2023-03-30T23:47:27.865Z,101372.19
2023-03-30T23:49:58.366Z,101351.75
2023-03-30T23:52:28.570Z,101364.59
2023-03-30T23:55:02.205Z,101371.69
2023-03-30T23:57:32.854Z,101363.28
